Latest Weather Observations for Maatsuyker Island

IDT60801

Issued at 4:31 pm EDT Friday 6 March 2015 (issued every 30 minutes, with the page automatically refreshed every 10 minutes)

About weather observations | Map of weather stations | Latest weather observations for TAS | Other Formats
Station Details ID: 094041 Name: MAATSUYKER ISLAND LIGHTHOUSE Lat: -43.66 Lon: 146.27 Height: 146.5 m
Data from the previous 72 hours. | See also: Recent months at Maatsuyker Island
Date/Time
EDT
Temp
°C
App
Temp
°C
Dew
Point
Rel
Hum
%
Delta-T
°C
Wind Press
QNH
hPa
Press
MSL
hPa
Rain
since 9 am
mm
Dir
 
Spd
km/h
Gust
km/h
Spd
kts
Gust
kts
06/04:30pm 11.3 5.8 4.0 61 3.3 W 22 33 12 18 1006.4 - 0.0
06/04:00pm 11.3 5.5 4.3 62 3.2 WSW 24 32 13 17 1006.3 - 0.0
06/03:30pm 12.2 6.4 4.3 58 3.6 WNW 24 28 13 15 1006.2 - 0.0
06/03:00pm 12.7 8.5 3.7 54 4.1 W 15 30 8 16 1006.3 1006.2 0.0
06/02:30pm 12.3 6.0 1.4 47 4.7 WSW 24 33 13 18 1006.3 - 0.0
06/02:00pm 11.7 4.6 1.4 49 4.4 WSW 28 33 15 18 1006.3 - 0.0
06/01:30pm 10.9 4.5 3.2 59 3.4 W 26 37 14 20 1006.3 - 0.0
06/01:00pm 10.9 3.0 0.9 50 4.2 WSW 32 41 17 22 1006.0 - 0.0
06/12:30pm 11.2 3.5 0.1 46 4.6 WSW 30 39 16 21 1005.9 - 0.0
06/12:00pm 10.7 2.6 1.2 52 4.0 WSW 33 43 18 23 1005.6 1005.5 0.0
06/11:30am 10.6 3.3 2.3 56 3.6 WSW 30 41 16 22 1005.2 - 0.0
06/11:00am 10.4 3.7 3.9 64 2.9 WSW 28 41 15 22 1004.9 - 0.0
06/10:38am 9.7 0.8 3.0 63 2.9 WSW 39 52 21 28 1004.8 - 0.0
06/10:30am 9.3 -1.2 3.4 66 2.6 SSW 48 61 26 33 1004.5 - 0.0
06/10:19am 9.9 -2.3 3.6 65 2.8 SSW 57 65 31 35 1004.1 - 0.0
06/10:15am 10.1 2.0 3.0 61 3.1 SW 35 56 19 30 1004.2 - 0.0
06/10:10am 9.7 2.0 2.5 61 3.1 SW 32 50 17 27 1004.2 - 0.0
06/10:00am 8.9 -2.7 2.0 62 2.9 SSW 52 76 28 41 1003.9 - 0.0
06/09:57am 8.6 -2.6 3.8 72 2.1 SSW 52 70 28 38 1003.8 - 0.0
06/09:39am 9.8 -2.1 5.2 73 2.1 S 57 63 31 34 1003.3 - 0.0
06/09:32am 9.8 0.4 2.6 61 3.1 SW 41 59 22 32 1003.4 - 0.0
06/09:30am 9.6 -0.4 2.1 59 3.2 SW 44 59 24 32 1003.5 - 0.0
06/09:22am 9.7 -1.3 3.1 63 2.9 SSW 50 59 27 32 1003.2 - 0.0
06/09:00am 9.3 0.6 5.8 79 1.6 SW 41 56 22 30 1003.0 1002.8 9.2
06/08:32am 8.8 -0.4 6.5 85 1.1 SW 44 54 24 29 1002.4 - 9.2
06/08:30am 9.0 1.9 6.4 84 1.2 W 33 48 18 26 1002.1 - 9.0
06/08:28am 9.0 1.6 6.9 87 1.0 W 35 48 19 26 1002.0 - 9.0
06/08:15am 8.5 -0.6 6.6 88 0.9 WSW 44 63 24 34 1002.0 - 9.0
06/08:11am 8.5 -1.4 6.6 88 0.9 WSW 48 63 26 34 1001.9 - 9.0
06/08:00am 8.9 -1.8 6.3 84 1.2 SSW 52 69 28 37 1001.4 - 8.8
06/07:59am 9.2 -1.2 6.0 80 1.5 SSW 50 69 27 37 1001.5 - 8.8
06/07:30am 9.9 0.5 2.2 59 3.3 W 41 67 22 36 1000.6 - 8.8
06/07:00am 10.0 -1.1 2.6 60 3.2 W 50 70 27 38 999.7 - 8.8
06/06:30am 9.9 0.5 4.4 68 2.5 W 43 61 23 33 999.1 - 8.8
06/06:00am 9.7 0.1 4.4 69 2.4 W 44 74 24 40 998.6 998.5 8.8
06/05:30am 10.0 0.5 6.9 81 1.5 W 46 69 25 37 997.9 - 8.8
06/05:03am 9.9 1.3 6.3 78 1.7 W 41 59 22 32 997.5 - 8.8
06/05:00am 9.9 0.9 6.5 79 1.6 W 43 59 23 32 997.4 - 8.8
06/04:30am 10.0 0.1 6.4 78 1.7 W 48 67 26 36 996.8 - 8.8
06/04:04am 10.3 -0.1 6.1 75 2.0 W 50 74 27 40 996.7 - 8.8
06/04:00am 10.4 0.1 6.6 77 1.8 W 50 67 27 36 996.6 - 8.8
06/03:44am 9.9 -0.2 7.2 83 1.3 W 50 69 27 37 996.3 - 8.8
06/03:43am 9.8 0.4 7.3 84 1.2 W 46 67 25 36 996.4 - 8.8
06/03:36am 9.9 -1.2 7.9 87 1.0 WSW 56 74 30 40 996.2 - 8.8
06/03:30am 9.7 -1.9 8.1 90 0.8 WSW 59 74 32 40 996.2 - 8.8
06/03:25am 10.1 -1.0 8.1 87 1.0 WSW 56 70 30 38 996.1 - 8.8
06/03:00am 10.7 1.7 8.9 89 0.9 W 46 65 25 35 995.6 995.5 8.8
06/02:38am 10.5 -0.3 9.1 91 0.7 W 56 76 30 41 995.7 - 8.8
06/02:30am 11.0 -0.3 9.6 91 0.7 W 59 76 32 41 995.3 - 8.8
06/02:02am 11.1 0.5 10.5 96 0.3 W 57 76 31 41 994.9 - 8.8
06/02:00am 11.1 -0.2 10.7 97 0.2 W 61 76 33 41 994.8 - 8.6
06/01:47am 11.4 -1.3 11.2 99 0.1 WNW 69 106 37 57 994.4 - 8.6
06/01:44am 11.7 -1.2 11.3 97 0.2 WNW 70 106 38 57 994.5 - 8.4
06/01:36am 11.8 -5.5 11.2 96 0.3 WNW 93 111 50 60 992.9 - 7.8
06/01:30am 12.0 -5.7 11.1 94 0.5 WNW 95 111 51 60 992.2 - 7.8
06/01:15am 12.2 -5.0 11.6 96 0.3 NW 93 111 50 60 992.0 - 7.8
06/01:00am 12.0 -6.6 11.3 95 0.4 NW 100 113 54 61 991.9 - 7.6
06/12:34am 11.8 -5.9 11.6 99 0.1 NW 96 119 52 64 990.6 - 7.4
06/12:30am 11.8 -6.3 11.8 100 0.0 NW 98 113 53 61 991.7 - 7.4
06/12:07am 11.7 -8.0 11.3 97 0.2 NW 106 124 57 67 991.5 - 7.2
06/12:00am 11.7 -8.6 11.1 96 0.3 NW 109 124 59 67 991.1 990.7 7.0
 
Date/Time
EDT
Temp
°C
App
Temp
°C
Dew
Point
Rel
Hum
%
Delta-T
°C
Wind Press
QNH
hPa
Press
MSL
hPa
Rain
since 9 am
mm
Dir
 
Spd
km/h
Gust
km/h
Spd
kts
Gust
kts
05/11:32pm 11.8 -9.0 11.0 95 0.4 NW 111 130 60 70 991.5 - 6.8
05/11:30pm 11.4 -9.7 11.0 97 0.2 NW 113 130 61 70 990.6 - 6.8
05/11:00pm 11.7 -9.9 10.8 94 0.5 NW 115 135 62 73 991.3 - 6.0
05/10:40pm 11.4 -10.6 10.8 96 0.3 NW 117 135 63 73 991.1 - 6.0
05/10:30pm 11.3 -10.4 10.3 94 0.5 NW 115 128 62 69 991.1 - 5.8
05/10:05pm 11.0 -10.0 10.2 95 0.4 NW 111 130 60 70 992.5 - 5.6
05/10:00pm 10.7 -11.4 10.3 97 0.2 NW 117 130 63 70 992.2 - 5.6
05/09:44pm 10.8 -9.2 10.2 96 0.3 NW 106 124 57 67 992.7 - 5.0
05/09:30pm 11.0 -9.1 10.6 97 0.2 NW 107 120 58 65 994.0 - 4.8
05/09:01pm 10.8 -9.2 10.2 96 0.3 NW 106 124 57 67 993.8 - 4.0
05/09:00pm 10.9 -8.8 9.9 93 0.5 NW 104 120 56 65 993.7 994.0 4.0
05/08:32pm 10.7 -9.0 9.9 95 0.4 NW 104 126 56 68 994.2 - 3.6
05/08:30pm 11.0 -8.8 9.8 92 0.6 NW 104 120 56 65 994.6 - 3.6
05/08:02pm 10.7 -10.4 8.3 85 1.2 NW 109 132 59 71 994.1 - 3.2
05/08:00pm 11.1 -9.5 8.7 85 1.2 NW 107 122 58 66 994.5 - 3.2
05/07:30pm 10.5 -9.2 8.7 89 0.9 NW 102 120 55 65 995.0 - 3.0
05/07:04pm 10.2 -8.4 8.6 90 0.8 NW 96 117 52 63 995.9 - 2.8
05/07:00pm 10.1 -8.7 7.4 83 1.3 NW 96 113 52 61 996.2 - 2.8
05/06:36pm 10.0 -10.5 8.6 91 0.7 NW 106 124 57 67 996.0 - 2.8
05/06:30pm 9.7 -11.9 7.6 87 1.0 NW 111 124 60 67 996.1 - 2.6
05/06:18pm 9.6 -10.4 8.8 95 0.4 NW 104 124 56 67 996.9 - 2.4
05/06:00pm 9.4 -11.1 6.9 84 1.2 NW 104 117 56 63 998.0 997.8 2.0
05/05:53pm 9.4 -11.6 7.3 87 1.0 NW 107 126 58 68 997.3 - 2.0
05/05:42pm 9.2 -13.7 7.1 87 1.0 NW 117 126 63 68 996.6 - 1.8
05/05:33pm 9.7 -9.3 6.8 82 1.4 NW 96 117 52 63 997.5 - 1.6
05/05:30pm 9.8 -8.7 6.6 80 1.5 NW 93 107 50 58 998.2 - 1.6
05/05:20pm 9.3 -9.9 5.6 78 1.7 NW 96 115 52 62 998.6 - 1.6
05/05:00pm 9.1 -10.9 7.2 88 0.9 NW 102 117 55 63 999.0 - 1.4
05/04:34pm 9.3 -9.8 5.4 76 1.8 NW 95 113 51 61 999.0 - 1.0
05/04:30pm 8.7 -10.3 6.6 87 1.0 NW 96 109 52 59 999.7 - 0.8
05/04:17pm 10.2 -9.2 5.0 70 2.4 NW 96 117 52 63 999.2 - 0.6
05/04:00pm 10.5 -8.2 5.3 70 2.4 NW 93 106 50 57 1000.1 - 0.6
05/03:42pm 9.0 -7.5 6.7 85 1.1 NW 83 126 45 68 1001.5 - 0.6
05/03:38pm 8.8 -12.3 6.0 82 1.3 NW 106 126 57 68 1000.4 - 0.4
05/03:35pm 8.9 -13.4 6.6 85 1.1 NW 113 126 61 68 999.9 - 0.4
05/03:33pm 9.8 -8.4 5.9 77 1.8 NW 91 113 49 61 1001.2 - 0.4
05/03:30pm 9.9 -8.0 5.6 74 2.0 NW 89 102 48 55 1001.7 - 0.4
05/03:00pm 10.3 -3.5 5.3 71 2.3 NW 67 95 36 51 1002.3 1002.1 0.4
05/02:40pm 10.6 -7.2 4.4 65 2.8 NW 87 107 47 58 1002.0 - 0.4
05/02:30pm 10.7 -4.9 4.8 67 2.7 NW 76 85 41 46 1003.1 - 0.4
05/02:02pm 10.0 -4.7 5.7 74 2.0 NW 72 96 39 52 1003.9 - 0.4
05/02:00pm 11.0 -3.3 4.7 65 2.9 NW 69 82 37 44 1004.0 - 0.4
05/01:30pm 11.3 -2.9 3.2 57 3.6 WNW 67 76 36 41 1005.4 - 0.4
05/01:29pm 11.2 -3.4 3.1 57 3.6 WNW 69 76 37 41 1005.3 - 0.4
05/01:05pm 9.1 -1.2 4.7 74 2.0 W 48 85 26 46 1006.6 - 0.4
05/01:00pm 8.5 -5.5 5.9 84 1.2 WNW 69 87 37 47 1006.5 - 0.4
05/12:54pm 10.2 -3.7 4.9 69 2.4 WNW 67 87 36 47 1005.9 - 0.2
05/12:30pm 11.0 -2.8 3.3 59 3.4 WNW 65 74 35 40 1005.8 - 0.2
05/12:00pm 10.0 -2.7 2.9 61 3.1 WNW 59 72 32 39 1006.5 1006.3 0.2
05/11:30am 10.4 -2.0 2.6 58 3.4 WNW 57 69 31 37 1006.9 - 0.2
05/11:17am 10.2 -1.4 1.7 55 3.6 W 52 72 28 39 1007.1 - 0.2
05/11:00am 9.7 -3.3 1.0 54 3.6 WNW 59 72 32 39 1006.7 - 0.2
05/10:46am 9.8 -0.2 4.2 68 2.5 WNW 46 65 25 35 1006.8 - 0.2
05/10:30am 9.0 -0.3 3.0 66 2.6 W 41 57 22 31 1007.1 - 0.2
05/10:13am 10.1 0.1 1.9 57 3.5 W 44 63 24 34 1006.7 - 0.2
05/10:00am 10.0 0.0 0.8 53 3.8 W 43 56 23 30 1006.5 - 0.2
05/09:31am 9.6 -1.6 -1.0 47 4.2 W 48 67 26 36 1006.5 - 0.0
05/09:30am 9.5 -2.1 -0.8 48 4.1 W 50 67 27 36 1006.5 - 0.0
05/09:00am 8.7 0.0 2.3 64 2.7 WSW 37 67 20 36 1006.1 1005.8 8.8
05/08:57am 8.4 -0.6 2.5 66 2.5 W 39 56 21 30 1005.9 - 8.8
05/08:46am 7.5 -3.9 2.8 72 2.0 WSW 52 74 28 40 1006.2 - 8.8
05/08:33am 8.8 -1.9 0.4 55 3.4 W 46 67 25 36 1005.6 - 8.8
05/08:30am 8.4 -2.4 2.2 65 2.6 W 48 63 26 34 1005.4 - 8.8
05/08:24am 8.7 -2.8 2.3 64 2.7 W 52 61 28 33 1005.5 - 8.8
05/08:00am 8.5 -3.2 0.9 59 3.1 WSW 52 78 28 42 1005.0 - 8.8
05/07:30am 8.6 -4.2 -0.1 54 3.5 WSW 57 76 31 41 1004.3 - 8.8
05/07:00am 8.8 -2.4 -0.5 52 3.7 WSW 48 70 26 38 1003.6 - 8.8
05/06:30am 8.9 -2.0 1.5 60 3.1 WSW 48 69 26 37 1002.7 - 8.8
05/06:09am 9.1 -1.6 2.6 64 2.8 W 48 67 26 36 1002.1 - 8.8
05/06:00am 8.9 -2.5 0.3 55 3.5 WSW 50 69 27 37 1001.9 1001.8 8.8
05/05:51am 8.8 -5.0 0.8 57 3.3 WSW 63 70 34 38 1001.7 - 8.8
05/05:38am 8.6 -0.5 3.8 72 2.1 SW 41 67 22 36 1001.2 - 8.8
05/05:37am 8.5 0.2 4.2 74 1.9 SW 37 67 20 36 1001.2 - 8.8
05/05:30am 8.0 -4.3 3.4 73 2.0 SW 57 82 31 44 1001.1 - 8.8
05/05:00am 8.5 -2.9 2.7 67 2.5 SW 52 72 28 39 1000.4 - 8.8
05/04:38am 8.2 -2.4 5.1 81 1.4 SSW 50 74 27 40 999.9 - 8.8
05/04:37am 8.2 -3.1 5.3 82 1.3 SSW 54 74 29 40 999.8 - 8.8
05/04:35am 7.9 -3.9 4.8 81 1.4 WSW 56 74 30 40 1000.1 - 8.8
05/04:32am 8.4 -3.2 3.9 73 2.0 WSW 54 69 29 37 999.9 - 8.6
05/04:30am 8.7 -0.6 5.2 79 1.6 W 43 69 23 37 999.7 - 8.6
05/04:21am 8.5 -0.9 4.7 77 1.7 W 43 56 23 30 999.5 - 8.6
05/04:00am 8.4 -1.8 3.3 70 2.2 WSW 46 65 25 35 999.2 - 8.6
05/03:52am 8.4 -1.4 3.3 70 2.2 W 44 65 24 35 999.1 - 8.6
05/03:30am 8.2 -2.1 4.6 78 1.6 SW 48 63 26 34 998.7 - 8.6
05/03:15am 7.8 -4.2 4.9 82 1.3 SW 57 76 31 41 998.5 - 8.6
05/03:10am 8.2 -4.1 5.3 82 1.3 SW 59 76 32 41 998.4 - 8.6
05/03:05am 8.6 0.1 5.3 80 1.5 W 39 57 21 31 998.1 - 8.4
05/03:00am 8.8 -0.6 4.6 75 1.9 W 43 56 23 30 998.1 998.1 8.4
05/02:33am 8.7 1.1 5.9 82 1.3 W 35 59 19 32 998.0 - 8.4
05/02:30am 8.5 0.9 5.7 82 1.3 W 35 50 19 27 998.0 - 8.4
05/02:00am 7.7 -3.7 5.0 83 1.2 WSW 54 72 29 39 998.0 - 8.4
05/01:35am 8.9 -1.2 7.2 89 0.8 WSW 50 74 27 40 997.7 - 7.6
05/01:32am 9.1 -1.1 7.0 87 1.0 WSW 50 70 27 38 997.2 - 7.4
05/01:30am 9.3 -3.0 6.8 84 1.2 NW 61 70 33 38 996.7 - 7.4
05/01:00am 10.2 -1.9 6.2 76 1.9 WNW 59 72 32 39 995.9 - 7.2
05/12:44am 9.1 -3.0 4.2 71 2.2 WNW 57 76 31 41 996.9 - 7.0
05/12:30am 10.5 -1.2 6.1 74 2.1 WNW 57 72 31 39 996.1 - 7.0
05/12:00am 10.1 -0.2 6.5 78 1.7 WNW 50 61 27 33 996.4 996.2 7.0
 
Date/Time
EDT
Temp
°C
App
Temp
°C
Dew
Point
Rel
Hum
%
Delta-T
°C
Wind Press
QNH
hPa
Press
MSL
hPa
Rain
since 9 am
mm
Dir
 
Spd
km/h
Gust
km/h
Spd
kts
Gust
kts
04/11:30pm 9.7 1.5 6.5 80 1.5 W 39 50 21 27 996.1 - 7.0
04/11:20pm 9.3 1.2 7.2 87 1.0 W 39 54 21 29 996.4 - 7.0
04/11:01pm 9.4 -1.9 8.0 91 0.7 WNW 57 76 31 41 996.6 - 7.0
04/11:00pm 9.6 -2.1 8.0 90 0.8 WNW 59 76 32 41 996.5 - 7.0
04/10:30pm 10.6 -2.9 8.4 86 1.1 WNW 69 78 37 42 995.5 - 7.0
04/10:00pm 10.5 -3.0 9.1 91 0.7 WNW 70 80 38 43 995.7 - 6.8
04/09:59pm 10.4 -3.0 9.4 93 0.5 WNW 70 96 38 52 995.8 - 6.8
04/09:36pm 11.6 -2.2 9.2 85 1.2 NW 72 93 39 50 993.8 - 6.8
04/09:30pm 11.5 -1.8 8.9 84 1.3 NW 69 82 37 44 994.6 - 6.4
04/09:00pm 11.4 -2.4 9.2 86 1.1 NW 72 87 39 47 994.5 994.3 6.0
04/08:30pm 11.2 -2.0 9.4 89 0.9 NNW 69 80 37 43 994.8 - 5.8
04/08:00pm 11.8 -2.0 10.7 93 0.6 NW 74 98 40 53 995.3 - 4.8
04/07:55pm 11.9 -1.1 10.8 93 0.6 NNW 70 98 38 53 994.6 - 4.8
04/07:30pm 12.3 -1.0 9.8 85 1.3 NNW 70 83 38 45 995.2 - 4.4
04/07:00pm 11.9 -1.3 9.6 86 1.2 NNW 69 78 37 42 995.6 - 4.4
04/06:39pm 11.3 -2.8 9.7 90 0.8 NW 74 93 40 50 996.0 - 4.2
04/06:30pm 11.2 -4.0 9.8 91 0.7 NW 80 93 43 50 995.6 - 4.2
04/06:15pm 11.6 -2.5 9.5 87 1.1 NNW 74 93 40 50 995.9 - 3.8
04/06:00pm 12.7 -1.2 8.8 77 2.0 NNW 72 91 39 49 996.0 995.9 3.8
04/05:30pm 12.9 -1.5 8.6 75 2.2 NNW 74 89 40 48 996.4 - 3.8
04/05:00pm 11.6 -2.7 8.8 83 1.4 NW 74 95 40 51 997.1 - 3.8
04/04:31pm 10.7 -5.6 10.5 99 0.1 NW 87 106 47 57 997.3 - 3.6
04/04:30pm 10.5 -6.2 10.5 100 0.0 NW 89 106 48 57 996.9 - 3.6
04/04:18pm 11.0 -7.1 9.8 92 0.6 NW 95 113 51 61 998.0 - 2.2
04/04:16pm 13.2 0.0 9.3 77 2.0 NW 69 107 37 58 997.7 - 1.6
04/04:00pm 13.7 -0.2 7.2 65 3.2 NNW 70 87 38 47 997.7 - 1.6
04/03:44pm 14.2 0.7 8.3 67 3.0 NNW 69 87 37 47 997.9 - 1.6
04/03:30pm 13.8 -0.2 8.5 70 2.7 NNW 72 85 39 46 998.0 - 1.6
04/03:00pm 13.9 3.0 8.8 71 2.6 NNW 56 76 30 41 999.2 999.2 1.6
04/02:57pm 13.6 1.8 9.1 74 2.3 NNW 61 80 33 43 999.4 - 1.6
04/02:38pm 13.6 -2.9 6.2 61 3.6 NW 82 102 44 55 998.3 - 1.6
04/02:30pm 13.8 -1.4 8.5 70 2.7 NW 78 91 42 49 998.7 - 1.6
04/02:00pm 14.3 -0.7 7.7 64 3.3 NW 76 89 41 48 999.5 - 1.6
04/01:30pm 14.0 -2.0 8.3 68 2.9 NW 82 95 44 51 999.1 - 1.6
04/01:02pm 13.9 -0.8 8.8 71 2.6 NW 76 95 41 51 999.4 - 1.6
04/01:00pm 13.9 -0.3 9.3 74 2.4 NW 74 87 40 47 999.6 - 1.6
04/12:30pm 13.9 -1.9 9.0 72 2.5 NW 82 93 44 50 1000.0 - 1.6
04/12:00pm 13.1 -1.9 9.0 76 2.1 NW 78 93 42 50 1000.2 1000.3 1.6
04/11:38am 13.0 -3.9 6.6 65 3.1 NW 85 107 46 58 1000.0 - 1.6
04/11:30am 13.0 -3.6 8.2 72 2.4 NW 85 96 46 52 1000.2 - 1.6
04/11:00am 12.4 -2.3 10.3 87 1.1 NW 78 96 42 52 1000.7 - 1.4
04/10:37am 11.8 -2.3 11.0 95 0.4 NW 76 95 41 51 1000.8 - 1.2
04/10:30am 11.7 -3.6 10.9 95 0.4 NW 82 96 44 52 1001.0 - 0.8
04/10:00am 13.4 -2.9 10.8 84 1.4 NW 87 100 47 54 999.9 - 0.0
04/09:38am 13.6 -2.7 10.6 82 1.6 NW 87 107 47 58 999.9 - 0.0
04/09:30am 13.6 -3.0 11.0 84 1.4 NNW 89 106 48 57 999.6 - 0.0
04/09:00am 12.6 0.3 11.5 93 0.6 NNW 67 100 36 54 999.4 999.0 0.8
04/08:35am 12.8 -3.8 10.9 88 1.0 NNW 89 107 48 58 999.1 - 0.4
04/08:30am 13.0 -3.9 11.3 89 0.9 NNW 91 107 49 58 998.6 - 0.4
04/08:19am 13.8 -2.2 10.4 80 1.8 NNW 85 117 46 63 998.3 - 0.4
04/08:00am 14.1 -0.6 10.3 78 2.0 NNW 78 96 42 52 998.9 - 0.4
04/07:30am 13.9 -3.4 9.9 77 2.1 NNW 91 113 49 61 998.2 - 0.4
04/07:00am 13.6 -3.5 10.4 81 1.7 NNW 91 113 49 61 998.3 - 0.2
04/06:30am 14.1 -2.9 9.3 73 2.5 NNW 89 107 48 58 998.9 - 0.2
04/06:00am 14.1 0.5 8.6 69 2.8 NNW 70 106 38 57 998.7 998.6 0.2
04/05:31am 13.1 -2.2 9.4 78 1.9 NNW 80 100 43 54 999.4 - 0.2
04/05:30am 13.2 -2.1 9.5 78 1.9 NNW 80 96 43 52 999.6 - 0.2
04/05:00am 13.3 -1.1 10.0 80 1.7 NNW 76 95 41 51 1000.2 - 0.0
04/04:30am 14.1 -0.5 9.1 72 2.6 NNW 76 96 41 52 1000.5 - 0.0
04/04:07am 13.6 -0.7 8.9 73 2.4 NNW 74 95 40 51 1001.1 - 0.0
04/04:00am 13.5 -1.2 9.0 74 2.3 NNW 76 89 41 48 1001.5 - 0.0
04/03:30am 12.4 -3.3 9.9 85 1.3 NNW 83 106 45 57 1001.5 - 0.0
04/03:25am 12.6 -2.4 10.5 87 1.1 NNW 80 106 43 57 1000.7 - 0.0
04/03:10am 13.8 0.9 9.1 73 2.4 NNW 67 85 36 46 1001.9 - 0.0
04/03:03am 13.5 -0.9 8.4 71 2.6 NW 74 85 40 46 1002.5 - 0.0
04/03:00am 13.3 3.2 8.8 74 2.3 NNW 52 72 28 39 1003.0 1002.8 0.0
04/02:41am 12.9 2.3 8.3 73 2.3 NNW 54 72 29 39 1003.2 - 0.0
04/02:30am 12.7 2.5 8.5 75 2.1 NNW 52 69 28 37 1003.3 - 0.0
04/02:04am 12.5 0.6 8.7 77 1.9 NNW 61 98 33 53 1003.5 - 0.0
04/02:03am 12.5 0.7 9.0 79 1.8 NNW 61 98 33 53 1003.4 - 0.0
04/02:01am 12.5 -3.0 8.5 76 2.0 NNW 80 98 43 53 1003.0 - 0.0
04/02:00am 12.4 -3.5 8.6 77 1.9 NNW 82 98 44 53 1002.8 - 0.0
04/01:55am 12.4 -4.9 9.9 85 1.3 NNW 91 98 49 53 1002.5 - 0.0
04/01:33am 12.3 -1.0 9.2 81 1.6 NNW 69 87 37 47 1003.7 - 0.0
04/01:30am 12.2 -1.8 10.1 87 1.1 NNW 74 87 40 47 1003.7 - 0.0
04/01:11am 12.7 -2.7 9.2 79 1.8 NW 80 91 43 49 1004.2 - 0.0
04/01:10am 12.7 1.2 8.7 76 2.0 NNW 59 91 32 49 1004.3 - 0.0
04/01:00am 13.2 3.0 6.8 65 3.1 NNW 50 69 27 37 1004.8 - 0.0
04/12:58am 13.2 3.3 6.6 64 3.2 NNW 48 69 26 37 1004.8 - 0.0
04/12:30am 12.8 3.8 7.3 69 2.7 NNW 44 59 24 32 1005.6 - 0.0
04/12:00am 12.6 3.7 7.5 71 2.5 NNW 44 57 24 31 1006.5 1006.4 0.0
 
Date/Time
EDT
Temp
°C
App
Temp
°C
Dew
Point
Rel
Hum
%
Delta-T
°C
Wind Press
QNH
hPa
Press
MSL
hPa
Rain
since 9 am
mm
Dir
 
Spd
km/h
Gust
km/h
Spd
kts
Gust
kts
03/11:30pm 12.3 3.6 7.9 74 2.2 NNW 43 63 23 34 1007.4 - 0.0
03/11:27pm 12.2 3.5 7.7 74 2.2 NNW 43 63 23 34 1007.4 - 0.0
03/11:00pm 12.2 3.6 8.2 76 2.0 NNW 43 54 23 29 1007.9 - 0.0
03/10:30pm 12.2 3.5 8.4 77 1.9 NNW 44 57 24 31 1008.3 - 0.0
03/10:03pm 12.4 3.5 7.7 73 2.3 NNW 44 63 24 34 1008.7 - 0.0
03/10:00pm 12.5 3.1 7.2 70 2.6 NNW 46 63 25 34 1008.7 - 0.0
03/09:30pm 13.3 3.2 5.5 59 3.7 NNW 48 69 26 37 1009.0 - 0.0
03/09:13pm 13.3 4.2 6.0 61 3.5 NNW 43 61 23 33 1009.5 - 0.0
03/09:00pm 13.2 2.3 5.4 59 3.7 NNW 52 65 28 35 1009.4 1009.2 0.0
03/08:41pm 13.2 2.0 5.9 61 3.5 NNW 54 72 29 39 1009.0 - 0.0
03/08:30pm 13.2 1.9 5.4 59 3.7 NNW 54 70 29 38 1009.3 - 0.0
03/08:00pm 12.8 1.6 7.5 70 2.6 NNW 56 70 30 38 1009.0 - 0.0
03/07:41pm 13.3 3.4 6.5 63 3.3 NNW 48 67 26 36 1009.0 - 0.0
03/07:30pm 13.3 2.6 6.5 63 3.3 NNW 52 65 28 35 1009.1 - 0.0
03/07:00pm 12.7 2.0 7.9 72 2.4 NNW 54 67 29 36 1009.3 - 0.0
03/06:30pm 13.3 3.4 6.5 63 3.3 NNW 48 67 26 36 1009.6 - 0.0
03/06:00pm 13.3 3.2 5.7 60 3.6 NNW 48 63 26 34 1009.9 1009.9 0.0
03/05:30pm 13.6 3.0 5.1 56 4.0 NNW 50 63 27 34 1010.3 - 0.0
03/05:00pm 14.1 4.0 3.6 49 4.8 NNW 46 61 25 33 1010.8 - 0.0

Other Formats:

Comma delimited format used in spreadsheet applications
http://www.bom.gov.au/fwo/IDT60801/IDT60801.94962.axf

JavaScript Object Notation format (JSON) in row-major order
http://www.bom.gov.au/fwo/IDT60801/IDT60801.94962.json